sensor_id;sensor_type;location;lat;lon;timestamp;P1;durP1;ratioP1;P2;durP2;ratioP2
77350;SDS011;66420;50.246;14.320;2023-02-18T00:00:35;2.13;;;0.93;;
77350;SDS011;66420;50.246;14.320;2023-02-18T00:03:20;1.65;;;0.90;;
77350;SDS011;66420;50.246;14.320;2023-02-18T00:06:12;1.80;;;1.02;;
77350;SDS011;66420;50.246;14.320;2023-02-18T00:08:58;2.40;;;1.15;;
77350;SDS011;66420;50.246;14.320;2023-02-18T00:11:45;2.28;;;0.90;;
77350;SDS011;66420;50.246;14.320;2023-02-18T00:14:29;2.65;;;0.98;;
77350;SDS011;66420;50.246;14.320;2023-02-18T00:17:13;2.30;;;1.00;;
77350;SDS011;66420;50.246;14.320;2023-02-18T00:19:58;3.30;;;1.30;;
77350;SDS011;66420;50.246;14.320;2023-02-18T00:22:43;2.25;;;1.35;;
77350;SDS011;66420;50.246;14.320;2023-02-18T00:25:27;1.92;;;1.20;;
77350;SDS011;66420;50.246;14.320;2023-02-18T00:28:12;2.65;;;1.20;;
77350;SDS011;66420;50.246;14.320;2023-02-18T00:30:57;2.33;;;1.30;;
77350;SDS011;66420;50.246;14.320;2023-02-18T00:33:41;3.38;;;1.35;;
77350;SDS011;66420;50.246;14.320;2023-02-18T00:36:27;2.25;;;1.20;;
77350;SDS011;66420;50.246;14.320;2023-02-18T00:39:12;3.08;;;1.40;;
77350;SDS011;66420;50.246;14.320;2023-02-18T00:41:56;2.83;;;1.05;;
77350;SDS011;66420;50.246;14.320;2023-02-18T00:44:41;1.98;;;1.02;;
77350;SDS011;66420;50.246;14.320;2023-02-18T00:47:26;1.92;;;1.10;;
77350;SDS011;66420;50.246;14.320;2023-02-18T00:50:10;2.17;;;1.38;;
77350;SDS011;66420;50.246;14.320;2023-02-18T00:52:55;2.97;;;1.20;;
77350;SDS011;66420;50.246;14.320;2023-02-18T00:55:39;2.30;;;1.05;;
77350;SDS011;66420;50.246;14.320;2023-02-18T00:58:25;2.10;;;1.17;;
77350;SDS011;66420;50.246;14.320;2023-02-18T01:01:11;2.00;;;1.20;;
77350;SDS011;66420;50.246;14.320;2023-02-18T01:03:56;1.98;;;1.20;;
77350;SDS011;66420;50.246;14.320;2023-02-18T01:06:41;3.30;;;1.40;;
77350;SDS011;66420;50.246;14.320;2023-02-18T01:09:25;3.92;;;1.50;;
77350;SDS011;66420;50.246;14.320;2023-02-18T01:12:10;3.38;;;1.20;;
77350;SDS011;66420;50.246;14.320;2023-02-18T01:14:54;2.28;;;1.15;;
77350;SDS011;66420;50.246;14.320;2023-02-18T01:17:39;2.22;;;1.10;;
77350;SDS011;66420;50.246;14.320;2023-02-18T01:20:23;2.83;;;1.70;;
77350;SDS011;66420;50.246;14.320;2023-02-18T01:23:08;5.07;;;1.77;;
77350;SDS011;66420;50.246;14.320;2023-02-18T01:25:54;3.28;;;1.70;;
77350;SDS011;66420;50.246;14.320;2023-02-18T01:28:40;3.60;;;1.60;;
77350;SDS011;66420;50.246;14.320;2023-02-18T01:31:25;3.47;;;1.90;;
77350;SDS011;66420;50.246;14.320;2023-02-18T01:34:10;3.67;;;1.60;;
77350;SDS011;66420;50.246;14.320;2023-02-18T01:36:55;2.42;;;1.30;;
77350;SDS011;66420;50.246;14.320;2023-02-18T01:39:39;2.90;;;1.58;;
77350;SDS011;66420;50.246;14.320;2023-02-18T01:42:25;3.67;;;1.70;;
77350;SDS011;66420;50.246;14.320;2023-02-18T01:48:20;2.65;;;1.65;;
77350;SDS011;66420;50.246;14.320;2023-02-18T01:51:13;4.50;;;1.50;;
77350;SDS011;66420;50.246;14.320;2023-02-18T01:54:05;2.15;;;1.55;;
77350;SDS011;66420;50.246;14.320;2023-02-18T01:59:46;3.65;;;2.03;;
77350;SDS011;66420;50.246;14.320;2023-02-18T02:02:34;3.83;;;1.83;;
77350;SDS011;66420;50.246;14.320;2023-02-18T02:05:20;3.45;;;1.83;;
77350;SDS011;66420;50.246;14.320;2023-02-18T02:08:05;3.50;;;1.92;;
77350;SDS011;66420;50.246;14.320;2023-02-18T02:17:30;3.33;;;1.80;;
77350;SDS011;66420;50.246;14.320;2023-02-18T02:30:00;3.92;;;2.00;;
77350;SDS011;66420;50.246;14.320;2023-02-18T02:39:53;3.45;;;1.90;;
77350;SDS011;66420;50.246;14.320;2023-02-18T02:42:55;4.35;;;1.88;;
77350;SDS011;66420;50.246;14.320;2023-02-18T02:51:28;4.20;;;2.00;;
77350;SDS011;66420;50.246;14.320;2023-02-18T02:54:20;3.05;;;1.80;;
77350;SDS011;66420;50.246;14.320;2023-02-18T03:00:00;4.13;;;2.15;;
77350;SDS011;66420;50.246;14.320;2023-02-18T03:02:58;2.67;;;1.58;;
77350;SDS011;66420;50.246;14.320;2023-02-18T03:09:20;4.13;;;1.77;;
77350;SDS011;66420;50.246;14.320;2023-02-18T03:12:16;3.60;;;2.13;;
77350;SDS011;66420;50.246;14.320;2023-02-18T03:17:59;4.13;;;2.33;;
77350;SDS011;66420;50.246;14.320;2023-02-18T03:20:50;4.60;;;2.33;;
77350;SDS011;66420;50.246;14.320;2023-02-18T03:23:45;7.10;;;3.15;;
77350;SDS011;66420;50.246;14.320;2023-02-18T03:26:51;4.10;;;2.30;;
77350;SDS011;66420;50.246;14.320;2023-02-18T03:29:42;5.03;;;2.50;;
77350;SDS011;66420;50.246;14.320;2023-02-18T03:32:29;3.92;;;2.38;;
77350;SDS011;66420;50.246;14.320;2023-02-18T03:35:17;5.78;;;2.67;;
77350;SDS011;66420;50.246;14.320;2023-02-18T03:38:06;5.65;;;3.00;;
77350;SDS011;66420;50.246;14.320;2023-02-18T03:41:01;5.43;;;2.78;;
77350;SDS011;66420;50.246;14.320;2023-02-18T03:43:50;5.10;;;2.75;;
77350;SDS011;66420;50.246;14.320;2023-02-18T03:46:43;4.82;;;2.53;;
77350;SDS011;66420;50.246;14.320;2023-02-18T03:49:28;5.55;;;2.50;;
77350;SDS011;66420;50.246;14.320;2023-02-18T03:52:13;5.03;;;2.78;;
77350;SDS011;66420;50.246;14.320;2023-02-18T03:54:58;4.47;;;2.80;;
77350;SDS011;66420;50.246;14.320;2023-02-18T03:57:42;4.55;;;2.70;;
77350;SDS011;66420;50.246;14.320;2023-02-18T04:00:26;4.85;;;2.40;;
77350;SDS011;66420;50.246;14.320;2023-02-18T04:03:11;4.57;;;2.30;;
77350;SDS011;66420;50.246;14.320;2023-02-18T04:05:56;4.20;;;2.42;;
77350;SDS011;66420;50.246;14.320;2023-02-18T04:08:40;4.25;;;2.30;;
77350;SDS011;66420;50.246;14.320;2023-02-18T04:11:25;3.83;;;2.25;;
77350;SDS011;66420;50.246;14.320;2023-02-18T04:14:09;5.22;;;3.05;;
77350;SDS011;66420;50.246;14.320;2023-02-18T04:16:57;4.10;;;2.30;;
77350;SDS011;66420;50.246;14.320;2023-02-18T04:19:41;4.78;;;2.15;;
77350;SDS011;66420;50.246;14.320;2023-02-18T04:22:26;5.07;;;2.10;;
77350;SDS011;66420;50.246;14.320;2023-02-18T04:25:10;3.85;;;2.30;;
77350;SDS011;66420;50.246;14.320;2023-02-18T04:27:55;4.50;;;2.72;;
77350;SDS011;66420;50.246;14.320;2023-02-18T04:30:40;5.05;;;2.75;;
77350;SDS011;66420;50.246;14.320;2023-02-18T04:33:25;6.80;;;3.28;;
77350;SDS011;66420;50.246;14.320;2023-02-18T04:36:09;5.07;;;2.85;;
77350;SDS011;66420;50.246;14.320;2023-02-18T04:38:54;7.93;;;3.67;;
77350;SDS011;66420;50.246;14.320;2023-02-18T04:41:38;6.50;;;3.45;;
77350;SDS011;66420;50.246;14.320;2023-02-18T04:44:26;7.55;;;4.18;;
77350;SDS011;66420;50.246;14.320;2023-02-18T04:47:10;7.53;;;4.68;;
77350;SDS011;66420;50.246;14.320;2023-02-18T04:49:55;6.88;;;3.78;;
77350;SDS011;66420;50.246;14.320;2023-02-18T04:52:39;7.80;;;4.60;;
77350;SDS011;66420;50.246;14.320;2023-02-18T04:55:23;9.43;;;5.10;;
77350;SDS011;66420;50.246;14.320;2023-02-18T04:58:08;8.50;;;4.30;;
77350;SDS011;66420;50.246;14.320;2023-02-18T05:00:57;7.10;;;3.90;;
77350;SDS011;66420;50.246;14.320;2023-02-18T05:06:29;7.70;;;3.80;;
77350;SDS011;66420;50.246;14.320;2023-02-18T05:09:13;6.97;;;3.92;;
77350;SDS011;66420;50.246;14.320;2023-02-18T05:11:58;6.53;;;3.78;;
77350;SDS011;66420;50.246;14.320;2023-02-18T05:14:43;8.63;;;3.72;;
77350;SDS011;66420;50.246;14.320;2023-02-18T05:17:28;7.65;;;4.07;;
77350;SDS011;66420;50.246;14.320;2023-02-18T05:20:12;8.52;;;4.35;;
77350;SDS011;66420;50.246;14.320;2023-02-18T05:22:56;7.22;;;3.75;;
77350;SDS011;66420;50.246;14.320;2023-02-18T05:25:41;6.88;;;3.40;;
77350;SDS011;66420;50.246;14.320;2023-02-18T05:28:26;6.72;;;3.95;;
77350;SDS011;66420;50.246;14.320;2023-02-18T05:31:10;6.75;;;3.85;;
77350;SDS011;66420;50.246;14.320;2023-02-18T05:33:55;6.57;;;3.90;;
77350;SDS011;66420;50.246;14.320;2023-02-18T05:36:39;8.10;;;4.20;;
77350;SDS011;66420;50.246;14.320;2023-02-18T05:39:24;8.73;;;4.55;;
77350;SDS011;66420;50.246;14.320;2023-02-18T05:42:08;10.23;;;4.55;;
77350;SDS011;66420;50.246;14.320;2023-02-18T05:44:53;7.38;;;4.15;;
77350;SDS011;66420;50.246;14.320;2023-02-18T05:47:38;7.30;;;4.28;;
77350;SDS011;66420;50.246;14.320;2023-02-18T05:50:24;7.25;;;3.97;;
77350;SDS011;66420;50.246;14.320;2023-02-18T05:53:09;7.75;;;4.07;;
77350;SDS011;66420;50.246;14.320;2023-02-18T05:55:53;9.40;;;5.25;;
77350;SDS011;66420;50.246;14.320;2023-02-18T05:58:38;8.88;;;5.13;;
77350;SDS011;66420;50.246;14.320;2023-02-18T06:01:22;11.88;;;5.65;;
77350;SDS011;66420;50.246;14.320;2023-02-18T06:04:07;9.65;;;5.47;;
77350;SDS011;66420;50.246;14.320;2023-02-18T06:06:52;10.18;;;5.00;;
77350;SDS011;66420;50.246;14.320;2023-02-18T06:09:37;8.18;;;4.53;;
77350;SDS011;66420;50.246;14.320;2023-02-18T06:12:22;7.75;;;4.13;;
77350;SDS011;66420;50.246;14.320;2023-02-18T06:15:07;7.50;;;4.40;;
77350;SDS011;66420;50.246;14.320;2023-02-18T06:17:52;6.65;;;4.03;;
77350;SDS011;66420;50.246;14.320;2023-02-18T06:20:38;9.50;;;3.78;;
77350;SDS011;66420;50.246;14.320;2023-02-18T06:23:23;6.68;;;4.07;;
77350;SDS011;66420;50.246;14.320;2023-02-18T06:26:07;5.85;;;3.35;;
77350;SDS011;66420;50.246;14.320;2023-02-18T06:28:52;9.90;;;4.15;;
77350;SDS011;66420;50.246;14.320;2023-02-18T06:31:37;5.93;;;3.72;;
77350;SDS011;66420;50.246;14.320;2023-02-18T06:34:21;9.10;;;4.28;;
77350;SDS011;66420;50.246;14.320;2023-02-18T06:37:06;12.38;;;5.88;;
77350;SDS011;66420;50.246;14.320;2023-02-18T06:39:51;16.17;;;9.50;;
77350;SDS011;66420;50.246;14.320;2023-02-18T06:42:36;23.40;;;12.68;;
77350;SDS011;66420;50.246;14.320;2023-02-18T06:45:20;32.30;;;15.82;;
77350;SDS011;66420;50.246;14.320;2023-02-18T06:48:05;24.27;;;12.70;;
77350;SDS011;66420;50.246;14.320;2023-02-18T06:50:49;23.17;;;11.77;;
77350;SDS011;66420;50.246;14.320;2023-02-18T06:53:34;21.50;;;11.45;;
77350;SDS011;66420;50.246;14.320;2023-02-18T06:56:19;26.35;;;13.70;;
77350;SDS011;66420;50.246;14.320;2023-02-18T06:59:03;19.92;;;9.35;;
77350;SDS011;66420;50.246;14.320;2023-02-18T07:01:48;12.80;;;5.97;;
77350;SDS011;66420;50.246;14.320;2023-02-18T07:04:33;6.75;;;2.70;;
77350;SDS011;66420;50.246;14.320;2023-02-18T07:07:17;6.15;;;1.90;;
77350;SDS011;66420;50.246;14.320;2023-02-18T07:10:02;2.45;;;1.52;;
77350;SDS011;66420;50.246;14.320;2023-02-18T07:12:47;4.95;;;1.77;;
77350;SDS011;66420;50.246;14.320;2023-02-18T07:15:32;4.85;;;1.83;;
77350;SDS011;66420;50.246;14.320;2023-02-18T07:18:17;3.47;;;1.67;;
77350;SDS011;66420;50.246;14.320;2023-02-18T07:21:01;3.78;;;1.55;;
77350;SDS011;66420;50.246;14.320;2023-02-18T07:23:46;3.90;;;1.70;;
77350;SDS011;66420;50.246;14.320;2023-02-18T07:26:31;2.83;;;1.50;;
77350;SDS011;66420;50.246;14.320;2023-02-18T07:29:16;2.70;;;1.17;;
77350;SDS011;66420;50.246;14.320;2023-02-18T07:32:00;3.83;;;1.50;;
77350;SDS011;66420;50.246;14.320;2023-02-18T07:34:44;2.45;;;1.38;;
77350;SDS011;66420;50.246;14.320;2023-02-18T07:37:29;2.17;;;1.20;;
77350;SDS011;66420;50.246;14.320;2023-02-18T07:40:15;4.80;;;1.42;;
77350;SDS011;66420;50.246;14.320;2023-02-18T07:43:03;2.60;;;1.20;;
77350;SDS011;66420;50.246;14.320;2023-02-18T07:45:48;3.72;;;1.20;;
77350;SDS011;66420;50.246;14.320;2023-02-18T07:48:33;3.67;;;1.42;;
77350;SDS011;66420;50.246;14.320;2023-02-18T07:51:19;2.60;;;1.30;;
77350;SDS011;66420;50.246;14.320;2023-02-18T07:54:03;2.17;;;1.08;;
77350;SDS011;66420;50.246;14.320;2023-02-18T07:56:48;2.88;;;1.10;;
77350;SDS011;66420;50.246;14.320;2023-02-18T07:59:32;2.63;;;1.38;;
77350;SDS011;66420;50.246;14.320;2023-02-18T08:02:19;3.38;;;1.10;;
77350;SDS011;66420;50.246;14.320;2023-02-18T08:05:05;2.00;;;1.10;;
77350;SDS011;66420;50.246;14.320;2023-02-18T08:07:50;3.42;;;1.50;;
77350;SDS011;66420;50.246;14.320;2023-02-18T08:10:35;2.20;;;1.33;;
77350;SDS011;66420;50.246;14.320;2023-02-18T08:13:19;1.90;;;1.00;;
77350;SDS011;66420;50.246;14.320;2023-02-18T08:16:03;2.92;;;1.23;;
77350;SDS011;66420;50.246;14.320;2023-02-18T08:18:49;2.28;;;1.20;;
77350;SDS011;66420;50.246;14.320;2023-02-18T08:21:34;4.28;;;1.70;;
77350;SDS011;66420;50.246;14.320;2023-02-18T08:24:19;3.20;;;1.45;;
77350;SDS011;66420;50.246;14.320;2023-02-18T08:27:03;2.10;;;1.30;;
77350;SDS011;66420;50.246;14.320;2023-02-18T08:29:48;2.95;;;1.20;;
77350;SDS011;66420;50.246;14.320;2023-02-18T08:32:33;2.60;;;1.10;;
77350;SDS011;66420;50.246;14.320;2023-02-18T08:35:18;2.13;;;1.10;;
77350;SDS011;66420;50.246;14.320;2023-02-18T08:38:03;3.08;;;1.20;;
77350;SDS011;66420;50.246;14.320;2023-02-18T08:40:48;3.20;;;1.13;;
77350;SDS011;66420;50.246;14.320;2023-02-18T08:43:32;3.30;;;0.95;;
77350;SDS011;66420;50.246;14.320;2023-02-18T08:46:17;2.47;;;1.17;;
77350;SDS011;66420;50.246;14.320;2023-02-18T08:49:02;2.30;;;1.10;;
77350;SDS011;66420;50.246;14.320;2023-02-18T08:51:47;1.90;;;0.90;;
77350;SDS011;66420;50.246;14.320;2023-02-18T08:54:32;1.65;;;0.93;;
77350;SDS011;66420;50.246;14.320;2023-02-18T08:57:17;2.08;;;0.80;;
77350;SDS011;66420;50.246;14.320;2023-02-18T09:00:02;1.70;;;0.70;;
77350;SDS011;66420;50.246;14.320;2023-02-18T09:02:48;1.45;;;0.73;;
77350;SDS011;66420;50.246;14.320;2023-02-18T09:05:33;1.70;;;0.80;;
77350;SDS011;66420;50.246;14.320;2023-02-18T09:08:18;2.03;;;0.70;;
77350;SDS011;66420;50.246;14.320;2023-02-18T09:11:02;1.20;;;0.60;;
77350;SDS011;66420;50.246;14.320;2023-02-18T09:13:48;1.85;;;0.70;;
77350;SDS011;66420;50.246;14.320;2023-02-18T09:16:32;2.13;;;0.68;;
77350;SDS011;66420;50.246;14.320;2023-02-18T09:19:17;1.50;;;0.60;;
77350;SDS011;66420;50.246;14.320;2023-02-18T09:22:02;2.17;;;0.63;;
77350;SDS011;66420;50.246;14.320;2023-02-18T09:24:46;1.63;;;0.70;;
77350;SDS011;66420;50.246;14.320;2023-02-18T09:27:31;0.75;;;0.50;;
77350;SDS011;66420;50.246;14.320;2023-02-18T09:30:15;2.80;;;0.60;;
77350;SDS011;66420;50.246;14.320;2023-02-18T09:33:00;0.93;;;0.50;;
77350;SDS011;66420;50.246;14.320;2023-02-18T09:35:45;0.63;;;0.50;;
77350;SDS011;66420;50.246;14.320;2023-02-18T09:38:30;1.23;;;0.60;;
77350;SDS011;66420;50.246;14.320;2023-02-18T09:44:34;1.13;;;0.70;;
77350;SDS011;66420;50.246;14.320;2023-02-18T09:50:10;1.10;;;0.60;;
77350;SDS011;66420;50.246;14.320;2023-02-18T09:52:59;1.85;;;0.60;;
77350;SDS011;66420;50.246;14.320;2023-02-18T09:55:46;1.20;;;0.60;;
77350;SDS011;66420;50.246;14.320;2023-02-18T09:58:32;1.33;;;0.50;;
77350;SDS011;66420;50.246;14.320;2023-02-18T10:01:25;1.10;;;0.60;;
77350;SDS011;66420;50.246;14.320;2023-02-18T10:04:18;2.95;;;1.13;;
77350;SDS011;66420;50.246;14.320;2023-02-18T10:07:13;5.53;;;1.48;;
77350;SDS011;66420;50.246;14.320;2023-02-18T10:10:49;4.53;;;2.33;;
77350;SDS011;66420;50.246;14.320;2023-02-18T10:13:29;3.28;;;1.40;;
77350;SDS011;66420;50.246;14.320;2023-02-18T10:16:17;3.95;;;1.40;;
77350;SDS011;66420;50.246;14.320;2023-02-18T10:19:15;2.63;;;1.25;;
77350;SDS011;66420;50.246;14.320;2023-02-18T10:22:07;4.53;;;3.05;;
77350;SDS011;66420;50.246;14.320;2023-02-18T10:24:58;2.75;;;0.95;;
77350;SDS011;66420;50.246;14.320;2023-02-18T10:27:47;2.55;;;0.60;;
77350;SDS011;66420;50.246;14.320;2023-02-18T10:30:34;2.25;;;0.80;;
77350;SDS011;66420;50.246;14.320;2023-02-18T10:33:44;1.42;;;0.65;;
77350;SDS011;66420;50.246;14.320;2023-02-18T10:36:45;1.45;;;0.70;;
77350;SDS011;66420;50.246;14.320;2023-02-18T10:42:35;1.98;;;0.90;;
77350;SDS011;66420;50.246;14.320;2023-02-18T10:51:25;1.60;;;0.68;;
77350;SDS011;66420;50.246;14.320;2023-02-18T10:54:14;3.00;;;0.75;;
77350;SDS011;66420;50.246;14.320;2023-02-18T10:56:59;3.78;;;2.25;;
77350;SDS011;66420;50.246;14.320;2023-02-18T10:59:53;2.35;;;1.02;;
77350;SDS011;66420;50.246;14.320;2023-02-18T11:02:42;1.63;;;0.80;;
77350;SDS011;66420;50.246;14.320;2023-02-18T11:05:27;1.35;;;0.73;;
77350;SDS011;66420;50.246;14.320;2023-02-18T11:08:37;2.38;;;0.88;;
77350;SDS011;66420;50.246;14.320;2023-02-18T11:11:24;1.40;;;0.77;;
77350;SDS011;66420;50.246;14.320;2023-02-18T11:14:14;1.17;;;0.70;;
77350;SDS011;66420;50.246;14.320;2023-02-18T11:17:20;1.38;;;0.75;;
77350;SDS011;66420;50.246;14.320;2023-02-18T11:20:20;1.45;;;0.80;;
77350;SDS011;66420;50.246;14.320;2023-02-18T11:23:15;1.80;;;0.80;;
77350;SDS011;66420;50.246;14.320;2023-02-18T11:26:02;1.13;;;0.68;;
77350;SDS011;66420;50.246;14.320;2023-02-18T11:28:50;1.40;;;0.80;;
77350;SDS011;66420;50.246;14.320;2023-02-18T11:31:45;1.95;;;0.90;;
77350;SDS011;66420;50.246;14.320;2023-02-18T11:34:32;2.30;;;1.13;;
77350;SDS011;66420;50.246;14.320;2023-02-18T11:37:18;2.45;;;1.17;;
77350;SDS011;66420;50.246;14.320;2023-02-18T11:40:05;2.45;;;1.50;;
77350;SDS011;66420;50.246;14.320;2023-02-18T11:42:50;3.97;;;1.60;;
77350;SDS011;66420;50.246;14.320;2023-02-18T11:45:35;3.58;;;1.50;;
77350;SDS011;66420;50.246;14.320;2023-02-18T11:48:22;3.47;;;1.42;;
77350;SDS011;66420;50.246;14.320;2023-02-18T11:51:13;2.65;;;1.48;;
77350;SDS011;66420;50.246;14.320;2023-02-18T11:54:01;2.85;;;1.52;;
77350;SDS011;66420;50.246;14.320;2023-02-18T11:57:04;2.95;;;1.73;;
77350;SDS011;66420;50.246;14.320;2023-02-18T11:59:53;3.33;;;1.80;;
77350;SDS011;66420;50.246;14.320;2023-02-18T12:02:39;2.88;;;1.60;;
77350;SDS011;66420;50.246;14.320;2023-02-18T12:05:25;3.40;;;1.70;;
77350;SDS011;66420;50.246;14.320;2023-02-18T12:08:13;3.75;;;2.00;;
77350;SDS011;66420;50.246;14.320;2023-02-18T12:11:09;2.95;;;1.70;;
77350;SDS011;66420;50.246;14.320;2023-02-18T12:13:58;2.67;;;1.60;;
77350;SDS011;66420;50.246;14.320;2023-02-18T12:26:23;3.60;;;1.70;;
77350;SDS011;66420;50.246;14.320;2023-02-18T12:32:40;4.20;;;2.25;;
77350;SDS011;66420;50.246;14.320;2023-02-18T12:38:33;3.90;;;2.65;;
77350;SDS011;66420;50.246;14.320;2023-02-18T12:53:15;4.22;;;2.90;;
77350;SDS011;66420;50.246;14.320;2023-02-18T13:09:21;4.70;;;2.88;;
77350;SDS011;66420;50.246;14.320;2023-02-18T13:15:02;4.20;;;2.42;;
77350;SDS011;66420;50.246;14.320;2023-02-18T13:20:48;4.13;;;2.60;;
77350;SDS011;66420;50.246;14.320;2023-02-18T13:23:38;4.60;;;2.47;;
77350;SDS011;66420;50.246;14.320;2023-02-18T13:26:30;6.32;;;2.80;;
77350;SDS011;66420;50.246;14.320;2023-02-18T13:32:19;5.20;;;2.50;;
77350;SDS011;66420;50.246;14.320;2023-02-18T13:35:22;4.20;;;2.58;;
77350;SDS011;66420;50.246;14.320;2023-02-18T13:41:39;5.18;;;2.42;;
77350;SDS011;66420;50.246;14.320;2023-02-18T13:47:09;4.10;;;2.30;;
77350;SDS011;66420;50.246;14.320;2023-02-18T13:49:54;5.13;;;2.25;;
77350;SDS011;66420;50.246;14.320;2023-02-18T13:52:41;5.32;;;2.30;;
77350;SDS011;66420;50.246;14.320;2023-02-18T13:58:38;4.32;;;2.80;;
77350;SDS011;66420;50.246;14.320;2023-02-18T14:01:30;3.75;;;2.30;;
77350;SDS011;66420;50.246;14.320;2023-02-18T14:10:25;4.20;;;2.42;;
77350;SDS011;66420;50.246;14.320;2023-02-18T14:13:25;4.90;;;2.75;;
77350;SDS011;66420;50.246;14.320;2023-02-18T14:22:49;4.28;;;2.40;;
77350;SDS011;66420;50.246;14.320;2023-02-18T14:25:36;4.75;;;2.20;;
77350;SDS011;66420;50.246;14.320;2023-02-18T14:34:29;5.10;;;2.42;;
77350;SDS011;66420;50.246;14.320;2023-02-18T14:50:04;3.25;;;2.10;;
77350;SDS011;66420;50.246;14.320;2023-02-18T14:52:59;4.70;;;2.33;;
77350;SDS011;66420;50.246;14.320;2023-02-18T14:55:49;3.08;;;1.98;;
77350;SDS011;66420;50.246;14.320;2023-02-18T14:58:37;3.42;;;1.98;;
77350;SDS011;66420;50.246;14.320;2023-02-18T15:01:32;4.68;;;2.15;;
77350;SDS011;66420;50.246;14.320;2023-02-18T15:04:18;3.47;;;2.13;;
77350;SDS011;66420;50.246;14.320;2023-02-18T15:07:03;4.85;;;1.90;;
77350;SDS011;66420;50.246;14.320;2023-02-18T15:09:49;4.35;;;2.00;;
77350;SDS011;66420;50.246;14.320;2023-02-18T15:12:37;3.78;;;1.60;;
77350;SDS011;66420;50.246;14.320;2023-02-18T15:15:22;4.50;;;2.00;;
77350;SDS011;66420;50.246;14.320;2023-02-18T15:18:15;2.63;;;1.65;;
77350;SDS011;66420;50.246;14.320;2023-02-18T15:24:08;3.35;;;1.73;;
77350;SDS011;66420;50.246;14.320;2023-02-18T15:27:02;3.90;;;1.65;;
77350;SDS011;66420;50.246;14.320;2023-02-18T15:30:02;3.78;;;1.60;;
77350;SDS011;66420;50.246;14.320;2023-02-18T15:32:56;3.47;;;1.50;;
77350;SDS011;66420;50.246;14.320;2023-02-18T15:35:43;4.65;;;1.63;;
77350;SDS011;66420;50.246;14.320;2023-02-18T15:38:27;2.60;;;1.33;;
77350;SDS011;66420;50.246;14.320;2023-02-18T15:41:13;3.50;;;1.45;;
77350;SDS011;66420;50.246;14.320;2023-02-18T15:44:00;4.13;;;1.30;;
77350;SDS011;66420;50.246;14.320;2023-02-18T15:46:48;2.50;;;1.20;;
77350;SDS011;66420;50.246;14.320;2023-02-18T15:49:34;3.10;;;1.27;;
77350;SDS011;66420;50.246;14.320;2023-02-18T15:52:23;1.80;;;0.80;;
77350;SDS011;66420;50.246;14.320;2023-02-18T15:55:18;1.35;;;0.80;;
77350;SDS011;66420;50.246;14.320;2023-02-18T15:58:23;2.45;;;0.80;;
77350;SDS011;66420;50.246;14.320;2023-02-18T16:01:25;1.63;;;0.70;;
77350;SDS011;66420;50.246;14.320;2023-02-18T16:04:12;1.95;;;0.80;;
77350;SDS011;66420;50.246;14.320;2023-02-18T16:06:58;1.10;;;0.60;;
77350;SDS011;66420;50.246;14.320;2023-02-18T16:09:46;3.53;;;0.80;;
77350;SDS011;66420;50.246;14.320;2023-02-18T16:12:30;2.90;;;1.00;;
77350;SDS011;66420;50.246;14.320;2023-02-18T16:15:26;2.67;;;0.88;;
77350;SDS011;66420;50.246;14.320;2023-02-18T16:21:24;2.35;;;0.70;;
77350;SDS011;66420;50.246;14.320;2023-02-18T16:24:27;2.13;;;0.70;;
77350;SDS011;66420;50.246;14.320;2023-02-18T16:27:14;2.47;;;1.20;;
77350;SDS011;66420;50.246;14.320;2023-02-18T16:30:12;2.85;;;0.85;;
77350;SDS011;66420;50.246;14.320;2023-02-18T16:33:00;1.60;;;0.73;;
77350;SDS011;66420;50.246;14.320;2023-02-18T16:35:45;1.55;;;0.70;;
77350;SDS011;66420;50.246;14.320;2023-02-18T16:38:29;2.63;;;1.17;;
77350;SDS011;66420;50.246;14.320;2023-02-18T16:41:14;2.50;;;0.90;;
77350;SDS011;66420;50.246;14.320;2023-02-18T16:43:59;1.50;;;0.73;;
77350;SDS011;66420;50.246;14.320;2023-02-18T16:46:43;2.58;;;1.00;;
77350;SDS011;66420;50.246;14.320;2023-02-18T16:49:28;2.05;;;0.90;;
77350;SDS011;66420;50.246;14.320;2023-02-18T16:52:14;2.10;;;0.77;;
77350;SDS011;66420;50.246;14.320;2023-02-18T16:55:00;1.67;;;0.90;;
77350;SDS011;66420;50.246;14.320;2023-02-18T16:57:44;5.30;;;0.90;;
77350;SDS011;66420;50.246;14.320;2023-02-18T17:00:30;1.67;;;0.80;;
77350;SDS011;66420;50.246;14.320;2023-02-18T17:03:15;4.10;;;1.23;;
77350;SDS011;66420;50.246;14.320;2023-02-18T17:06:00;1.40;;;0.60;;
77350;SDS011;66420;50.246;14.320;2023-02-18T17:08:44;1.10;;;0.60;;
77350;SDS011;66420;50.246;14.320;2023-02-18T17:11:33;1.25;;;0.60;;
77350;SDS011;66420;50.246;14.320;2023-02-18T17:14:19;1.60;;;0.80;;
77350;SDS011;66420;50.246;14.320;2023-02-18T17:17:08;1.40;;;0.70;;
77350;SDS011;66420;50.246;14.320;2023-02-18T17:19:56;2.35;;;1.08;;
77350;SDS011;66420;50.246;14.320;2023-02-18T17:22:41;3.50;;;1.20;;
77350;SDS011;66420;50.246;14.320;2023-02-18T17:25:31;2.20;;;0.98;;
77350;SDS011;66420;50.246;14.320;2023-02-18T17:28:19;1.80;;;0.80;;
77350;SDS011;66420;50.246;14.320;2023-02-18T17:31:04;2.40;;;0.85;;
77350;SDS011;66420;50.246;14.320;2023-02-18T17:33:49;2.60;;;0.95;;
77350;SDS011;66420;50.246;14.320;2023-02-18T17:36:33;3.05;;;0.90;;
77350;SDS011;66420;50.246;14.320;2023-02-18T17:39:18;2.40;;;1.02;;
77350;SDS011;66420;50.246;14.320;2023-02-18T17:42:03;2.38;;;1.10;;
77350;SDS011;66420;50.246;14.320;2023-02-18T17:44:48;3.45;;;0.90;;
77350;SDS011;66420;50.246;14.320;2023-02-18T17:47:33;1.52;;;0.90;;
77350;SDS011;66420;50.246;14.320;2023-02-18T17:50:17;1.50;;;0.80;;
77350;SDS011;66420;50.246;14.320;2023-02-18T17:53:02;1.92;;;1.05;;
77350;SDS011;66420;50.246;14.320;2023-02-18T17:55:48;1.98;;;1.10;;
77350;SDS011;66420;50.246;14.320;2023-02-18T17:58:33;1.85;;;1.00;;
77350;SDS011;66420;50.246;14.320;2023-02-18T18:01:18;3.30;;;1.20;;
77350;SDS011;66420;50.246;14.320;2023-02-18T18:04:05;2.00;;;1.00;;
77350;SDS011;66420;50.246;14.320;2023-02-18T18:06:56;1.55;;;0.85;;
77350;SDS011;66420;50.246;14.320;2023-02-18T18:09:41;2.10;;;0.90;;
77350;SDS011;66420;50.246;14.320;2023-02-18T18:12:26;1.88;;;0.80;;
77350;SDS011;66420;50.246;14.320;2023-02-18T18:18:08;1.70;;;0.93;;
77350;SDS011;66420;50.246;14.320;2023-02-18T18:20:57;2.20;;;0.90;;
77350;SDS011;66420;50.246;14.320;2023-02-18T18:23:44;2.50;;;0.85;;
77350;SDS011;66420;50.246;14.320;2023-02-18T18:26:29;2.00;;;1.00;;
77350;SDS011;66420;50.246;14.320;2023-02-18T18:29:13;2.17;;;0.95;;
77350;SDS011;66420;50.246;14.320;2023-02-18T18:31:58;1.75;;;0.95;;
77350;SDS011;66420;50.246;14.320;2023-02-18T18:34:42;2.22;;;0.93;;
77350;SDS011;66420;50.246;14.320;2023-02-18T18:37:27;2.53;;;1.10;;
77350;SDS011;66420;50.246;14.320;2023-02-18T18:40:11;3.22;;;0.80;;
77350;SDS011;66420;50.246;14.320;2023-02-18T18:42:56;1.55;;;0.88;;
77350;SDS011;66420;50.246;14.320;2023-02-18T18:45:42;2.63;;;1.08;;
77350;SDS011;66420;50.246;14.320;2023-02-18T18:48:27;1.63;;;1.00;;
77350;SDS011;66420;50.246;14.320;2023-02-18T18:51:15;2.38;;;1.23;;
77350;SDS011;66420;50.246;14.320;2023-02-18T18:54:04;2.67;;;1.00;;
77350;SDS011;66420;50.246;14.320;2023-02-18T18:56:49;2.75;;;1.17;;
77350;SDS011;66420;50.246;14.320;2023-02-18T18:59:33;2.25;;;0.95;;
77350;SDS011;66420;50.246;14.320;2023-02-18T19:02:18;2.30;;;1.13;;
77350;SDS011;66420;50.246;14.320;2023-02-18T19:05:03;3.42;;;0.93;;
77350;SDS011;66420;50.246;14.320;2023-02-18T19:07:48;2.38;;;1.00;;
77350;SDS011;66420;50.246;14.320;2023-02-18T19:10:40;3.03;;;1.15;;
77350;SDS011;66420;50.246;14.320;2023-02-18T19:13:28;3.40;;;1.15;;